sensor_id;sensor_type;location;lat;lon;timestamp;pressure;altitude;pressure_sealevel;temperature;humidity
70971;BME280;58632;51.718;19.446;2023-01-15T00:00:12;98817.96;;;4.70;100.00
70971;BME280;58632;51.718;19.446;2023-01-15T00:02:58;98807.65;;;4.73;100.00
70971;BME280;58632;51.718;19.446;2023-01-15T00:05:23;98801.90;;;4.73;100.00
70971;BME280;58632;51.718;19.446;2023-01-15T00:07:49;98790.44;;;4.71;100.00
70971;BME280;58632;51.718;19.446;2023-01-15T00:10:16;98785.89;;;4.73;100.00
70971;BME280;58632;51.718;19.446;2023-01-15T00:12:42;98778.04;;;4.75;100.00
70971;BME280;58632;51.718;19.446;2023-01-15T00:15:07;98776.83;;;4.73;100.00
70971;BME280;58632;51.718;19.446;2023-01-15T00:17:33;98768.16;;;4.68;100.00
70971;BME280;58632;51.718;19.446;2023-01-15T00:19:59;98765.80;;;4.65;100.00
70971;BME280;58632;51.718;19.446;2023-01-15T00:22:24;98764.60;;;4.67;100.00
70971;BME280;58632;51.718;19.446;2023-01-15T00:24:50;98758.85;;;4.67;100.00
70971;BME280;58632;51.718;19.446;2023-01-15T00:27:35;98757.31;;;4.66;100.00
70971;BME280;58632;51.718;19.446;2023-01-15T00:30:03;98742.23;;;4.65;100.00
70971;BME280;58632;51.718;19.446;2023-01-15T00:32:29;98738.22;;;4.68;100.00
70971;BME280;58632;51.718;19.446;2023-01-15T00:34:57;98730.01;;;4.72;100.00
70971;BME280;58632;51.718;19.446;2023-01-15T00:37:22;98721.08;;;4.71;100.00
70971;BME280;58632;51.718;19.446;2023-01-15T00:39:48;98716.84;;;4.69;100.00
70971;BME280;58632;51.718;19.446;2023-01-15T00:42:13;98714.73;;;4.66;100.00
70971;BME280;58632;51.718;19.446;2023-01-15T00:44:40;98719.08;;;4.65;100.00
70971;BME280;58632;51.718;19.446;2023-01-15T00:47:06;98714.84;;;4.69;100.00
70971;BME280;58632;51.718;19.446;2023-01-15T00:49:33;98715.61;;;4.65;100.00
70971;BME280;58632;51.718;19.446;2023-01-15T00:51:58;98714.13;;;4.62;100.00
70971;BME280;58632;51.718;19.446;2023-01-15T00:54:24;98710.14;;;4.60;100.00
70971;BME280;58632;51.718;19.446;2023-01-15T00:56:50;98710.20;;;4.60;100.00
70971;BME280;58632;51.718;19.446;2023-01-15T00:59:16;98702.20;;;4.64;100.00
70971;BME280;58632;51.718;19.446;2023-01-15T01:01:41;98699.60;;;4.66;100.00
70971;BME280;58632;51.718;19.446;2023-01-15T01:04:07;98694.15;;;4.65;100.00
70971;BME280;58632;51.718;19.446;2023-01-15T01:06:32;98695.92;;;4.63;100.00
70971;BME280;58632;51.718;19.446;2023-01-15T01:08:58;98690.05;;;4.64;100.00
70971;BME280;58632;51.718;19.446;2023-01-15T01:11:24;98687.98;;;4.64;100.00
70971;BME280;58632;51.718;19.446;2023-01-15T01:13:51;98679.62;;;4.64;100.00
70971;BME280;58632;51.718;19.446;2023-01-15T01:16:38;98674.04;;;4.64;100.00
70971;BME280;58632;51.718;19.446;2023-01-15T01:19:09;98661.30;;;4.64;100.00
70971;BME280;58632;51.718;19.446;2023-01-15T01:21:36;98650.92;;;4.62;100.00
70971;BME280;58632;51.718;19.446;2023-01-15T01:24:02;98648.60;;;4.64;100.00
70971;BME280;58632;51.718;19.446;2023-01-15T01:26:28;98646.84;;;4.68;100.00
70971;BME280;58632;51.718;19.446;2023-01-15T01:28:54;98645.09;;;4.69;100.00
70971;BME280;58632;51.718;19.446;2023-01-15T01:31:20;98641.02;;;4.71;100.00
70971;BME280;58632;51.718;19.446;2023-01-15T01:33:52;98638.39;;;4.74;100.00
70971;BME280;58632;51.718;19.446;2023-01-15T01:36:18;98640.05;;;4.81;100.00
70971;BME280;58632;51.718;19.446;2023-01-15T01:38:47;98635.90;;;4.86;100.00
70971;BME280;58632;51.718;19.446;2023-01-15T01:41:16;98636.14;;;4.89;100.00
70971;BME280;58632;51.718;19.446;2023-01-15T01:43:55;98635.43;;;4.91;100.00
70971;BME280;58632;51.718;19.446;2023-01-15T01:46:22;98640.52;;;4.96;100.00
70971;BME280;58632;51.718;19.446;2023-01-15T01:48:48;98639.44;;;5.00;100.00
70971;BME280;58632;51.718;19.446;2023-01-15T01:51:14;98638.46;;;5.02;100.00
70971;BME280;58632;51.718;19.446;2023-01-15T01:53:41;98635.21;;;5.04;100.00
70971;BME280;58632;51.718;19.446;2023-01-15T01:56:07;98634.35;;;5.05;100.00
70971;BME280;58632;51.718;19.446;2023-01-15T01:58:32;98634.99;;;5.07;100.00
70971;BME280;58632;51.718;19.446;2023-01-15T02:00:58;98631.77;;;5.13;100.00
70971;BME280;58632;51.718;19.446;2023-01-15T02:03:26;98611.46;;;5.15;100.00
70971;BME280;58632;51.718;19.446;2023-01-15T02:05:55;98593.65;;;5.15;100.00
70971;BME280;58632;51.718;19.446;2023-01-15T02:08:22;98586.69;;;5.17;100.00
70971;BME280;58632;51.718;19.446;2023-01-15T02:10:50;98579.73;;;5.18;100.00
70971;BME280;58632;51.718;19.446;2023-01-15T02:23:32;98559.47;;;5.20;100.00
70971;BME280;58632;51.718;19.446;2023-01-15T02:28:29;98557.80;;;5.16;100.00
70971;BME280;58632;51.718;19.446;2023-01-15T02:31:00;98554.27;;;5.08;100.00
70971;BME280;58632;51.718;19.446;2023-01-15T02:33:49;98552.85;;;5.01;100.00
70971;BME280;58632;51.718;19.446;2023-01-15T02:36:17;98546.06;;;4.98;100.00
70971;BME280;58632;51.718;19.446;2023-01-15T02:38:44;98558.42;;;5.00;100.00
70971;BME280;58632;51.718;19.446;2023-01-15T02:41:12;98559.05;;;5.01;100.00
70971;BME280;58632;51.718;19.446;2023-01-15T02:43:43;98561.52;;;5.01;100.00
70971;BME280;58632;51.718;19.446;2023-01-15T02:46:09;98549.66;;;5.03;100.00
70971;BME280;58632;51.718;19.446;2023-01-15T02:48:37;98541.96;;;5.04;100.00
70971;BME280;58632;51.718;19.446;2023-01-15T02:51:07;98529.20;;;5.05;100.00
70971;BME280;58632;51.718;19.446;2023-01-15T02:53:35;98526.17;;;5.06;100.00
70971;BME280;58632;51.718;19.446;2023-01-15T02:56:02;98520.06;;;5.03;100.00
70971;BME280;58632;51.718;19.446;2023-01-15T02:58:30;98517.00;;;4.99;100.00
70971;BME280;58632;51.718;19.446;2023-01-15T03:00:57;98519.09;;;4.94;100.00
70971;BME280;58632;51.718;19.446;2023-01-15T03:03:36;98507.71;;;4.89;100.00
70971;BME280;58632;51.718;19.446;2023-01-15T03:06:07;98513.94;;;4.88;100.00
70971;BME280;58632;51.718;19.446;2023-01-15T03:08:35;98511.02;;;4.84;100.00
70971;BME280;58632;51.718;19.446;2023-01-15T03:11:05;98505.93;;;4.80;100.00
70971;BME280;58632;51.718;19.446;2023-01-15T03:13:42;98500.46;;;4.77;100.00
70971;BME280;58632;51.718;19.446;2023-01-15T03:21:34;98486.80;;;4.86;100.00
70971;BME280;58632;51.718;19.446;2023-01-15T03:24:03;98493.23;;;4.92;100.00
70971;BME280;58632;51.718;19.446;2023-01-15T03:26:30;98497.79;;;4.95;100.00
70971;BME280;58632;51.718;19.446;2023-01-15T03:28:56;98483.98;;;4.99;100.00
70971;BME280;58632;51.718;19.446;2023-01-15T03:31:22;98479.31;;;5.07;100.00
70971;BME280;58632;51.718;19.446;2023-01-15T03:33:47;98478.23;;;5.13;100.00
70971;BME280;58632;51.718;19.446;2023-01-15T03:36:13;98472.42;;;5.16;100.00
70971;BME280;58632;51.718;19.446;2023-01-15T03:38:39;98469.14;;;5.19;100.00
70971;BME280;58632;51.718;19.446;2023-01-15T03:48:49;98431.20;;;5.34;100.00
70971;BME280;58632;51.718;19.446;2023-01-15T03:51:21;98434.08;;;5.36;100.00
70971;BME280;58632;51.718;19.446;2023-01-15T03:53:48;98440.18;;;5.35;100.00
70971;BME280;58632;51.718;19.446;2023-01-15T03:58:58;98445.87;;;5.44;100.00
70971;BME280;58632;51.718;19.446;2023-01-15T04:01:26;98451.05;;;5.52;100.00
70971;BME280;58632;51.718;19.446;2023-01-15T04:03:52;98441.07;;;5.55;100.00
70971;BME280;58632;51.718;19.446;2023-01-15T04:06:19;98439.36;;;5.61;100.00
70971;BME280;58632;51.718;19.446;2023-01-15T04:08:45;98434.21;;;5.64;100.00
70971;BME280;58632;51.718;19.446;2023-01-15T04:11:11;98426.85;;;5.68;100.00
70971;BME280;58632;51.718;19.446;2023-01-15T04:13:36;98422.70;;;5.70;100.00
70971;BME280;58632;51.718;19.446;2023-01-15T04:16:02;98419.27;;;5.74;100.00
70971;BME280;58632;51.718;19.446;2023-01-15T04:18:28;98410.83;;;5.80;100.00
70971;BME280;58632;51.718;19.446;2023-01-15T04:20:54;98405.73;;;5.84;100.00
70971;BME280;58632;51.718;19.446;2023-01-15T04:23:20;98407.25;;;5.87;100.00
70971;BME280;58632;51.718;19.446;2023-01-15T04:25:46;98404.30;;;5.91;100.00
70971;BME280;58632;51.718;19.446;2023-01-15T04:28:11;98405.93;;;5.92;100.00
70971;BME280;58632;51.718;19.446;2023-01-15T04:30:37;98406.36;;;5.95;100.00
70971;BME280;58632;51.718;19.446;2023-01-15T04:33:03;98400.38;;;6.00;100.00
70971;BME280;58632;51.718;19.446;2023-01-15T04:35:29;98387.45;;;6.03;100.00
70971;BME280;58632;51.718;19.446;2023-01-15T04:37:55;98383.70;;;6.04;100.00
70971;BME280;58632;51.718;19.446;2023-01-15T04:40:21;98381.43;;;6.04;100.00
70971;BME280;58632;51.718;19.446;2023-01-15T04:43:07;98380.48;;;6.05;100.00
70971;BME280;58632;51.718;19.446;2023-01-15T04:45:51;98382.64;;;6.07;100.00
70971;BME280;58632;51.718;19.446;2023-01-15T04:48:16;98380.98;;;6.12;100.00
70971;BME280;58632;51.718;19.446;2023-01-15T04:50:42;98378.85;;;6.13;100.00
70971;BME280;58632;51.718;19.446;2023-01-15T04:53:08;98373.33;;;6.15;100.00
70971;BME280;58632;51.718;19.446;2023-01-15T04:55:33;98376.39;;;6.18;100.00
70971;BME280;58632;51.718;19.446;2023-01-15T04:57:59;98375.49;;;6.18;100.00
70971;BME280;58632;51.718;19.446;2023-01-15T05:00:24;98380.08;;;6.21;100.00
70971;BME280;58632;51.718;19.446;2023-01-15T05:02:50;98379.33;;;6.23;100.00
70971;BME280;58632;51.718;19.446;2023-01-15T05:05:16;98376.05;;;6.28;100.00
70971;BME280;58632;51.718;19.446;2023-01-15T05:07:41;98370.36;;;6.34;100.00
70971;BME280;58632;51.718;19.446;2023-01-15T05:10:07;98371.73;;;6.35;100.00
70971;BME280;58632;51.718;19.446;2023-01-15T05:12:33;98366.32;;;6.35;100.00
70971;BME280;58632;51.718;19.446;2023-01-15T05:14:59;98358.41;;;6.34;100.00
70971;BME280;58632;51.718;19.446;2023-01-15T05:17:25;98358.74;;;6.33;100.00
70971;BME280;58632;51.718;19.446;2023-01-15T05:19:50;98355.79;;;6.31;100.00
70971;BME280;58632;51.718;19.446;2023-01-15T05:22:16;98353.21;;;6.28;100.00
70971;BME280;58632;51.718;19.446;2023-01-15T05:24:41;98350.95;;;6.26;100.00
70971;BME280;58632;51.718;19.446;2023-01-15T05:27:07;98341.25;;;6.23;100.00
70971;BME280;58632;51.718;19.446;2023-01-15T05:29:33;98342.76;;;6.21;100.00
70971;BME280;58632;51.718;19.446;2023-01-15T05:31:59;98340.34;;;6.25;100.00
70971;BME280;58632;51.718;19.446;2023-01-15T05:34:24;98333.87;;;6.26;100.00
70971;BME280;58632;51.718;19.446;2023-01-15T05:36:50;98327.46;;;6.28;100.00
70971;BME280;58632;51.718;19.446;2023-01-15T05:39:15;98324.63;;;6.28;100.00
70971;BME280;58632;51.718;19.446;2023-01-15T05:41:41;98322.56;;;6.29;100.00
70971;BME280;58632;51.718;19.446;2023-01-15T05:44:18;98315.68;;;6.30;100.00
70971;BME280;58632;51.718;19.446;2023-01-15T05:46:44;98319.50;;;6.28;100.00
70971;BME280;58632;51.718;19.446;2023-01-15T05:49:12;98313.59;;;6.28;100.00
70971;BME280;58632;51.718;19.446;2023-01-15T05:51:38;98310.16;;;6.28;100.00
70971;BME280;58632;51.718;19.446;2023-01-15T05:54:04;98305.61;;;6.29;100.00
70971;BME280;58632;51.718;19.446;2023-01-15T05:56:30;98299.04;;;6.31;100.00
70971;BME280;58632;51.718;19.446;2023-01-15T05:58:56;98295.52;;;6.33;100.00
70971;BME280;58632;51.718;19.446;2023-01-15T06:01:21;98283.73;;;6.33;100.00
70971;BME280;58632;51.718;19.446;2023-01-15T06:03:47;98280.90;;;6.37;100.00
70971;BME280;58632;51.718;19.446;2023-01-15T06:06:13;98280.50;;;6.41;100.00
70971;BME280;58632;51.718;19.446;2023-01-15T06:08:40;98279.15;;;6.42;100.00
70971;BME280;58632;51.718;19.446;2023-01-15T06:11:05;98279.90;;;6.43;100.00
70971;BME280;58632;51.718;19.446;2023-01-15T06:13:31;98277.89;;;6.46;100.00
70971;BME280;58632;51.718;19.446;2023-01-15T06:15:58;98279.52;;;6.52;100.00
70971;BME280;58632;51.718;19.446;2023-01-15T06:18:23;98277.95;;;6.55;100.00
70971;BME280;58632;51.718;19.446;2023-01-15T06:20:49;98278.90;;;6.58;100.00
70971;BME280;58632;51.718;19.446;2023-01-15T06:23:16;98278.30;;;6.61;100.00
70971;BME280;58632;51.718;19.446;2023-01-15T06:25:42;98277.30;;;6.64;100.00
70971;BME280;58632;51.718;19.446;2023-01-15T06:28:08;98274.95;;;6.67;100.00
70971;BME280;58632;51.718;19.446;2023-01-15T06:30:34;98272.64;;;6.72;100.00
70971;BME280;58632;51.718;19.446;2023-01-15T06:32:59;98272.84;;;6.77;100.00
70971;BME280;58632;51.718;19.446;2023-01-15T06:35:25;98274.92;;;6.81;100.00
70971;BME280;58632;51.718;19.446;2023-01-15T06:37:51;98278.77;;;6.85;100.00
70971;BME280;58632;51.718;19.446;2023-01-15T06:40:17;98280.73;;;6.90;100.00
70971;BME280;58632;51.718;19.446;2023-01-15T06:42:42;98282.13;;;6.96;100.00
70971;BME280;58632;51.718;19.446;2023-01-15T06:45:26;98280.27;;;7.00;100.00
70971;BME280;58632;51.718;19.446;2023-01-15T06:48:12;98279.34;;;7.03;100.00
70971;BME280;58632;51.718;19.446;2023-01-15T06:50:37;98281.13;;;7.03;100.00
70971;BME280;58632;51.718;19.446;2023-01-15T06:53:03;98283.39;;;7.10;100.00
70971;BME280;58632;51.718;19.446;2023-01-15T06:55:29;98284.34;;;7.19;100.00
70971;BME280;58632;51.718;19.446;2023-01-15T06:57:54;98290.42;;;7.22;100.00
70971;BME280;58632;51.718;19.446;2023-01-15T07:00:20;98283.17;;;7.24;100.00
70971;BME280;58632;51.718;19.446;2023-01-15T07:02:46;98291.08;;;7.27;100.00
70971;BME280;58632;51.718;19.446;2023-01-15T07:05:11;98292.27;;;7.30;100.00
70971;BME280;58632;51.718;19.446;2023-01-15T07:07:37;98294.66;;;7.31;100.00
70971;BME280;58632;51.718;19.446;2023-01-15T07:10:02;98297.42;;;7.33;100.00
70971;BME280;58632;51.718;19.446;2023-01-15T07:12:28;98295.95;;;7.33;100.00
70971;BME280;58632;51.718;19.446;2023-01-15T07:14:54;98296.79;;;7.35;100.00
70971;BME280;58632;51.718;19.446;2023-01-15T07:17:20;98296.29;;;7.36;100.00
70971;BME280;58632;51.718;19.446;2023-01-15T07:19:45;98294.44;;;7.36;100.00
70971;BME280;58632;51.718;19.446;2023-01-15T07:22:11;98292.85;;;7.36;100.00
70971;BME280;58632;51.718;19.446;2023-01-15T07:24:36;98298.80;;;7.32;100.00
70971;BME280;58632;51.718;19.446;2023-01-15T07:27:03;98299.22;;;7.27;100.00
70971;BME280;58632;51.718;19.446;2023-01-15T07:29:30;98301.02;;;7.25;100.00
70971;BME280;58632;51.718;19.446;2023-01-15T07:31:55;98306.73;;;7.18;100.00
70971;BME280;58632;51.718;19.446;2023-01-15T07:34:21;98304.08;;;7.18;100.00
70971;BME280;58632;51.718;19.446;2023-01-15T07:36:47;98302.63;;;7.15;100.00
70971;BME280;58632;51.718;19.446;2023-01-15T07:39:12;98298.58;;;7.12;100.00
70971;BME280;58632;51.718;19.446;2023-01-15T07:41:38;98296.46;;;7.12;100.00
70971;BME280;58632;51.718;19.446;2023-01-15T07:44:23;98295.67;;;7.09;100.00
70971;BME280;58632;51.718;19.446;2023-01-15T07:47:09;98287.87;;;7.04;100.00
70971;BME280;58632;51.718;19.446;2023-01-15T07:49:58;98292.52;;;7.04;100.00
70971;BME280;58632;51.718;19.446;2023-01-15T07:52:23;98282.25;;;7.03;100.00
70971;BME280;58632;51.718;19.446;2023-01-15T07:54:49;98281.00;;;7.03;100.00
70971;BME280;58632;51.718;19.446;2023-01-15T07:57:15;98277.08;;;7.02;100.00
70971;BME280;58632;51.718;19.446;2023-01-15T07:59:42;98278.32;;;7.03;100.00
70971;BME280;58632;51.718;19.446;2023-01-15T08:02:07;98277.58;;;7.03;100.00
70971;BME280;58632;51.718;19.446;2023-01-15T08:04:33;98276.33;;;7.06;100.00
70971;BME280;58632;51.718;19.446;2023-01-15T08:06:59;98272.23;;;7.06;100.00
70971;BME280;58632;51.718;19.446;2023-01-15T08:09:25;98272.00;;;7.06;100.00
70971;BME280;58632;51.718;19.446;2023-01-15T08:11:51;98271.64;;;7.05;100.00
70971;BME280;58632;51.718;19.446;2023-01-15T08:14:35;98271.60;;;7.04;100.00
70971;BME280;58632;51.718;19.446;2023-01-15T08:17:19;98272.11;;;7.05;100.00
70971;BME280;58632;51.718;19.446;2023-01-15T08:19:45;98272.23;;;7.04;100.00
70971;BME280;58632;51.718;19.446;2023-01-15T08:22:11;98274.27;;;7.00;100.00
70971;BME280;58632;51.718;19.446;2023-01-15T08:24:37;98271.85;;;6.95;100.00
70971;BME280;58632;51.718;19.446;2023-01-15T08:27:02;98270.37;;;6.93;100.00
70971;BME280;58632;51.718;19.446;2023-01-15T08:29:28;98269.98;;;6.88;100.00
70971;BME280;58632;51.718;19.446;2023-01-15T08:31:54;98273.81;;;6.83;100.00
70971;BME280;58632;51.718;19.446;2023-01-15T08:34:20;98274.46;;;6.79;100.00
70971;BME280;58632;51.718;19.446;2023-01-15T08:36:45;98277.00;;;6.78;100.00
70971;BME280;58632;51.718;19.446;2023-01-15T08:39:11;98276.18;;;6.77;100.00
70971;BME280;58632;51.718;19.446;2023-01-15T08:41:37;98274.13;;;6.70;100.00
70971;BME280;58632;51.718;19.446;2023-01-15T08:44:02;98272.52;;;6.64;100.00
70971;BME280;58632;51.718;19.446;2023-01-15T08:46:28;98278.74;;;6.62;100.00
70971;BME280;58632;51.718;19.446;2023-01-15T08:48:54;98275.77;;;6.60;100.00
70971;BME280;58632;51.718;19.446;2023-01-15T08:51:19;98275.16;;;6.56;100.00
70971;BME280;58632;51.718;19.446;2023-01-15T08:53:45;98280.78;;;6.54;100.00
70971;BME280;58632;51.718;19.446;2023-01-15T08:56:14;98275.51;;;6.53;100.00
70971;BME280;58632;51.718;19.446;2023-01-15T08:58:41;98280.29;;;6.56;100.00
70971;BME280;58632;51.718;19.446;2023-01-15T09:01:08;98275.30;;;6.55;100.00
70971;BME280;58632;51.718;19.446;2023-01-15T09:03:34;98280.45;;;6.54;100.00
70971;BME280;58632;51.718;19.446;2023-01-15T09:06:00;98281.51;;;6.55;100.00
70971;BME280;58632;51.718;19.446;2023-01-15T09:08:26;98283.19;;;6.56;100.00
70971;BME280;58632;51.718;19.446;2023-01-15T09:10:59;98281.17;;;6.56;100.00
70971;BME280;58632;51.718;19.446;2023-01-15T09:13:25;98283.02;;;6.56;100.00
70971;BME280;58632;51.718;19.446;2023-01-15T09:15:51;98289.23;;;6.54;100.00
70971;BME280;58632;51.718;19.446;2023-01-15T09:18:17;98286.80;;;6.53;100.00
70971;BME280;58632;51.718;19.446;2023-01-15T09:20:46;98287.27;;;6.49;100.00
70971;BME280;58632;51.718;19.446;2023-01-15T09:23:12;98281.13;;;6.45;100.00
70971;BME280;58632;51.718;19.446;2023-01-15T09:25:38;98280.31;;;6.38;100.00
70971;BME280;58632;51.718;19.446;2023-01-15T09:28:03;98280.51;;;6.34;100.00
70971;BME280;58632;51.718;19.446;2023-01-15T09:30:29;98279.24;;;6.32;100.00
70971;BME280;58632;51.718;19.446;2023-01-15T09:32:55;98281.57;;;6.29;100.00
70971;BME280;58632;51.718;19.446;2023-01-15T09:35:20;98277.14;;;6.26;100.00
70971;BME280;58632;51.718;19.446;2023-01-15T09:37:50;98283.41;;;6.19;100.00
70971;BME280;58632;51.718;19.446;2023-01-15T09:40:39;98277.31;;;6.14;100.00
70971;BME280;58632;51.718;19.446;2023-01-15T09:45:59;98269.35;;;6.03;100.00
70971;BME280;58632;51.718;19.446;2023-01-15T09:48:30;98263.92;;;6.01;100.00
70971;BME280;58632;51.718;19.446;2023-01-15T09:51:01;98262.33;;;5.98;100.00
70971;BME280;58632;51.718;19.446;2023-01-15T09:53:45;98260.39;;;5.96;100.00
70971;BME280;58632;51.718;19.446;2023-01-15T09:56:21;98257.66;;;5.94;100.00
70971;BME280;58632;51.718;19.446;2023-01-15T09:58:48;98255.92;;;5.91;100.00
70971;BME280;58632;51.718;19.446;2023-01-15T10:01:15;98248.55;;;5.91;100.00
70971;BME280;58632;51.718;19.446;2023-01-15T10:03:44;98241.80;;;5.90;100.00
70971;BME280;58632;51.718;19.446;2023-01-15T10:06:14;98241.25;;;5.87;100.00
70971;BME280;58632;51.718;19.446;2023-01-15T10:08:44;98244.45;;;5.86;100.00
70971;BME280;58632;51.718;19.446;2023-01-15T10:16:10;98230.66;;;5.89;100.00
70971;BME280;58632;51.718;19.446;2023-01-15T10:18:37;98227.88;;;5.89;100.00
70971;BME280;58632;51.718;19.446;2023-01-15T10:26:41;98218.89;;;5.89;100.00
70971;BME280;58632;51.718;19.446;2023-01-15T10:31:54;98211.36;;;5.87;100.00
70971;BME280;58632;51.718;19.446;2023-01-15T10:36:55;98206.23;;;5.91;100.00
70971;BME280;58632;51.718;19.446;2023-01-15T10:39:26;98199.84;;;5.92;100.00
70971;BME280;58632;51.718;19.446;2023-01-15T10:44:45;98203.42;;;5.94;100.00
70971;BME280;58632;51.718;19.446;2023-01-15T10:47:14;98199.00;;;5.96;100.00
70971;BME280;58632;51.718;19.446;2023-01-15T10:49:42;98195.95;;;6.00;100.00
70971;BME280;58632;51.718;19.446;2023-01-15T10:54:41;98188.55;;;6.01;100.00
70971;BME280;58632;51.718;19.446;2023-01-15T10:59:58;98188.06;;;6.09;100.00
70971;BME280;58632;51.718;19.446;2023-01-15T11:05:26;98192.45;;;6.14;100.00
70971;BME280;58632;51.718;19.446;2023-01-15T11:07:52;98187.83;;;6.18;100.00
70971;BME280;58632;51.718;19.446;2023-01-15T11:10:19;98175.04;;;6.20;100.00
70971;BME280;58632;51.718;19.446;2023-01-15T11:12:53;98172.33;;;6.22;100.00
70971;BME280;58632;51.718;19.446;2023-01-15T11:15:37;98170.73;;;6.23;100.00
70971;BME280;58632;51.718;19.446;2023-01-15T11:18:23;98171.69;;;6.26;100.00
70971;BME280;58632;51.718;19.446;2023-01-15T11:21:15;98173.09;;;6.28;100.00
70971;BME280;58632;51.718;19.446;2023-01-15T11:23:41;98174.09;;;6.30;100.00
70971;BME280;58632;51.718;19.446;2023-01-15T11:26:07;98173.58;;;6.29;100.00
70971;BME280;58632;51.718;19.446;2023-01-15T11:28:38;98166.00;;;6.27;100.00
70971;BME280;58632;51.718;19.446;2023-01-15T11:31:10;98163.95;;;6.27;100.00
70971;BME280;58632;51.718;19.446;2023-01-15T11:33:36;98162.04;;;6.27;100.00
70971;BME280;58632;51.718;19.446;2023-01-15T11:36:03;98159.83;;;6.31;100.00
70971;BME280;58632;51.718;19.446;2023-01-15T11:38:30;98158.67;;;6.34;100.00
70971;BME280;58632;51.718;19.446;2023-01-15T11:41:16;98160.05;;;6.35;100.00
70971;BME280;58632;51.718;19.446;2023-01-15T11:43:52;98155.80;;;6.35;100.00
70971;BME280;58632;51.718;19.446;2023-01-15T11:46:36;98150.55;;;6.39;100.00
70971;BME280;58632;51.718;19.446;2023-01-15T11:49:20;98155.09;;;6.42;100.00
70971;BME280;58632;51.718;19.446;2023-01-15T11:52:21;98155.24;;;6.42;100.00
70971;BME280;58632;51.718;19.446;2023-01-15T11:54:48;98152.34;;;6.42;100.00
70971;BME280;58632;51.718;19.446;2023-01-15T11:57:22;98152.80;;;6.43;100.00
70971;BME280;58632;51.718;19.446;2023-01-15T11:59:49;98149.80;;;6.45;100.00
70971;BME280;58632;51.718;19.446;2023-01-15T12:02:16;98151.52;;;6.44;100.00
70971;BME280;58632;51.718;19.446;2023-01-15T12:04:48;98152.76;;;6.44;100.00
70971;BME280;58632;51.718;19.446;2023-01-15T12:07:18;98146.98;;;6.48;100.00
70971;BME280;58632;51.718;19.446;2023-01-15T12:10:00;98136.44;;;6.48;100.00
70971;BME280;58632;51.718;19.446;2023-01-15T12:12:35;98135.63;;;6.54;100.00
70971;BME280;58632;51.718;19.446;2023-01-15T12:33:03;98113.30;;;6.75;100.00
70971;BME280;58632;51.718;19.446;2023-01-15T12:35:31;98117.83;;;6.76;100.00
70971;BME280;58632;51.718;19.446;2023-01-15T12:37:58;98120.61;;;6.73;100.00
70971;BME280;58632;51.718;19.446;2023-01-15T12:43:17;98131.03;;;6.72;100.00
70971;BME280;58632;51.718;19.446;2023-01-15T12:46:04;98133.88;;;6.71;100.00
70971;BME280;58632;51.718;19.446;2023-01-15T12:48:36;98131.95;;;6.69;100.00
70971;BME280;58632;51.718;19.446;2023-01-15T12:51:04;98131.28;;;6.68;100.00
70971;BME280;58632;51.718;19.446;2023-01-15T12:53:36;98135.55;;;6.67;100.00
70971;BME280;58632;51.718;19.446;2023-01-15T12:56:09;98134.52;;;6.69;100.00
70971;BME280;58632;51.718;19.446;2023-01-15T13:01:19;98132.98;;;6.68;100.00
70971;BME280;58632;51.718;19.446;2023-01-15T13:06:17;98134.91;;;6.71;100.00
70971;BME280;58632;51.718;19.446;2023-01-15T13:08:55;98144.89;;;6.74;100.00
70971;BME280;58632;51.718;19.446;2023-01-15T13:11:22;98139.83;;;6.74;100.00
70971;BME280;58632;51.718;19.446;2023-01-15T13:13:47;98144.15;;;6.74;100.00
70971;BME280;58632;51.718;19.446;2023-01-15T13:16:30;98147.98;;;6.72;100.00
70971;BME280;58632;51.718;19.446;2023-01-15T13:21:44;98153.70;;;6.73;100.00
70971;BME280;58632;51.718;19.446;2023-01-15T13:34:22;98168.36;;;6.75;100.00
70971;BME280;58632;51.718;19.446;2023-01-15T13:36:50;98166.87;;;6.74;100.00
70971;BME280;58632;51.718;19.446;2023-01-15T13:39:19;98169.86;;;6.73;100.00
70971;BME280;58632;51.718;19.446;2023-01-15T13:41:46;98178.99;;;6.72;100.00
70971;BME280;58632;51.718;19.446;2023-01-15T13:44:33;98187.08;;;6.70;100.00
70971;BME280;58632;51.718;19.446;2023-01-15T13:47:01;98184.99;;;6.70;100.00
70971;BME280;58632;51.718;19.446;2023-01-15T13:49:30;98179.11;;;6.71;100.00
70971;BME280;58632;51.718;19.446;2023-01-15T13:51:58;98180.16;;;6.70;100.00
70971;BME280;58632;51.718;19.446;2023-01-15T13:54:28;98176.48;;;6.69;100.00
70971;BME280;58632;51.718;19.446;2023-01-15T13:59:41;98175.14;;;6.66;100.00
70971;BME280;58632;51.718;19.446;2023-01-15T14:02:26;98175.80;;;6.67;100.00
70971;BME280;58632;51.718;19.446;2023-01-15T14:04:52;98182.55;;;6.67;100.00
70971;BME280;58632;51.718;19.446;2023-01-15T14:07:19;98178.86;;;6.66;100.00
70971;BME280;58632;51.718;19.446;2023-01-15T14:09:47;98182.30;;;6.64;100.00
70971;BME280;58632;51.718;19.446;2023-01-15T14:22:17;98188.14;;;6.63;100.00
70971;BME280;58632;51.718;19.446;2023-01-15T14:27:30;98199.11;;;6.63;100.00
70971;BME280;58632;51.718;19.446;2023-01-15T14:35:20;98203.06;;;6.61;100.00
70971;BME280;58632;51.718;19.446;2023-01-15T14:37:57;98198.51;;;6.59;100.00
70971;BME280;58632;51.718;19.446;2023-01-15T14:40:28;98195.83;;;6.58;100.00
70971;BME280;58632;51.718;19.446;2023-01-15T14:42:55;98198.33;;;6.58;100.00
70971;BME280;58632;51.718;19.446;2023-01-15T14:45:33;98201.98;;;6.58;100.00
70971;BME280;58632;51.718;19.446;2023-01-15T14:48:01;98205.83;;;6.57;100.00
70971;BME280;58632;51.718;19.446;2023-01-15T14:50:28;98204.88;;;6.56;100.00
70971;BME280;58632;51.718;19.446;2023-01-15T14:55:39;98208.80;;;6.56;100.00
70971;BME280;58632;51.718;19.446;2023-01-15T15:00:43;98211.01;;;6.52;100.00